sensor_id;sensor_type;location;lat;lon;timestamp;P1;durP1;ratioP1;P2;durP2;ratioP2
15112;SDS011;7657;50.140;7.076;2022-11-15T00:02:16;5.93;;;4.78;;
15112;SDS011;7657;50.140;7.076;2022-11-15T00:04:43;7.35;;;5.50;;
15112;SDS011;7657;50.140;7.076;2022-11-15T00:07:10;9.23;;;5.50;;
15112;SDS011;7657;50.140;7.076;2022-11-15T00:09:37;6.97;;;4.85;;
15112;SDS011;7657;50.140;7.076;2022-11-15T00:12:04;6.28;;;5.10;;
15112;SDS011;7657;50.140;7.076;2022-11-15T00:14:31;7.45;;;5.10;;
15112;SDS011;7657;50.140;7.076;2022-11-15T00:16:58;6.13;;;5.18;;
15112;SDS011;7657;50.140;7.076;2022-11-15T00:19:26;6.60;;;5.30;;
15112;SDS011;7657;50.140;7.076;2022-11-15T00:21:53;7.53;;;5.05;;
15112;SDS011;7657;50.140;7.076;2022-11-15T00:24:20;7.47;;;5.05;;
15112;SDS011;7657;50.140;7.076;2022-11-15T00:26:47;7.97;;;5.55;;
15112;SDS011;7657;50.140;7.076;2022-11-15T00:29:13;6.38;;;5.40;;
15112;SDS011;7657;50.140;7.076;2022-11-15T00:31:40;6.90;;;5.60;;
15112;SDS011;7657;50.140;7.076;2022-11-15T00:34:08;8.10;;;5.80;;
15112;SDS011;7657;50.140;7.076;2022-11-15T00:36:37;8.13;;;6.13;;
15112;SDS011;7657;50.140;7.076;2022-11-15T00:39:04;8.20;;;5.53;;
15112;SDS011;7657;50.140;7.076;2022-11-15T00:41:31;9.07;;;7.13;;
15112;SDS011;7657;50.140;7.076;2022-11-15T00:43:58;8.88;;;6.93;;
15112;SDS011;7657;50.140;7.076;2022-11-15T00:46:25;8.70;;;6.95;;
15112;SDS011;7657;50.140;7.076;2022-11-15T00:48:52;10.43;;;7.38;;
15112;SDS011;7657;50.140;7.076;2022-11-15T00:51:19;9.30;;;6.82;;
15112;SDS011;7657;50.140;7.076;2022-11-15T00:53:47;7.57;;;6.78;;
15112;SDS011;7657;50.140;7.076;2022-11-15T00:56:14;8.55;;;7.60;;
15112;SDS011;7657;50.140;7.076;2022-11-15T00:58:42;9.05;;;7.47;;
15112;SDS011;7657;50.140;7.076;2022-11-15T01:01:09;9.48;;;7.28;;
15112;SDS011;7657;50.140;7.076;2022-11-15T01:03:38;12.30;;;7.85;;
15112;SDS011;7657;50.140;7.076;2022-11-15T01:06:06;10.57;;;7.93;;
15112;SDS011;7657;50.140;7.076;2022-11-15T01:08:34;11.90;;;8.68;;
15112;SDS011;7657;50.140;7.076;2022-11-15T01:11:03;10.82;;;8.65;;
15112;SDS011;7657;50.140;7.076;2022-11-15T01:13:32;10.57;;;8.30;;
15112;SDS011;7657;50.140;7.076;2022-11-15T01:16:04;12.50;;;9.35;;
15112;SDS011;7657;50.140;7.076;2022-11-15T01:18:32;11.80;;;9.18;;
15112;SDS011;7657;50.140;7.076;2022-11-15T01:20:59;11.98;;;9.55;;
15112;SDS011;7657;50.140;7.076;2022-11-15T01:23:30;11.40;;;8.90;;
15112;SDS011;7657;50.140;7.076;2022-11-15T01:25:58;11.07;;;9.18;;
15112;SDS011;7657;50.140;7.076;2022-11-15T01:28:30;13.85;;;9.13;;
15112;SDS011;7657;50.140;7.076;2022-11-15T01:30:58;11.38;;;10.07;;
15112;SDS011;7657;50.140;7.076;2022-11-15T01:33:25;11.45;;;9.73;;
15112;SDS011;7657;50.140;7.076;2022-11-15T01:35:52;13.13;;;9.32;;
15112;SDS011;7657;50.140;7.076;2022-11-15T01:38:19;10.95;;;9.63;;
15112;SDS011;7657;50.140;7.076;2022-11-15T01:40:46;12.32;;;9.80;;
15112;SDS011;7657;50.140;7.076;2022-11-15T01:43:21;11.25;;;9.23;;
15112;SDS011;7657;50.140;7.076;2022-11-15T01:45:51;11.82;;;9.05;;
15112;SDS011;7657;50.140;7.076;2022-11-15T01:48:22;10.65;;;8.55;;
15112;SDS011;7657;50.140;7.076;2022-11-15T01:50:54;11.90;;;8.65;;
15112;SDS011;7657;50.140;7.076;2022-11-15T01:53:21;10.57;;;8.70;;
15112;SDS011;7657;50.140;7.076;2022-11-15T01:55:51;10.30;;;8.45;;
15112;SDS011;7657;50.140;7.076;2022-11-15T01:58:18;9.98;;;8.25;;
15112;SDS011;7657;50.140;7.076;2022-11-15T02:00:45;9.38;;;8.18;;
15112;SDS011;7657;50.140;7.076;2022-11-15T02:03:14;10.20;;;8.05;;
15112;SDS011;7657;50.140;7.076;2022-11-15T02:05:41;9.63;;;8.25;;
15112;SDS011;7657;50.140;7.076;2022-11-15T02:08:10;10.48;;;7.82;;
15112;SDS011;7657;50.140;7.076;2022-11-15T02:10:45;9.02;;;7.13;;
15112;SDS011;7657;50.140;7.076;2022-11-15T02:13:13;10.15;;;6.88;;
15112;SDS011;7657;50.140;7.076;2022-11-15T02:15:42;7.90;;;6.45;;
15112;SDS011;7657;50.140;7.076;2022-11-15T02:18:22;8.90;;;6.97;;
15112;SDS011;7657;50.140;7.076;2022-11-15T02:20:58;9.25;;;7.40;;
15112;SDS011;7657;50.140;7.076;2022-11-15T02:23:41;7.22;;;6.03;;
15112;SDS011;7657;50.140;7.076;2022-11-15T02:29:34;9.07;;;6.20;;
15112;SDS011;7657;50.140;7.076;2022-11-15T02:32:16;8.40;;;6.30;;
15112;SDS011;7657;50.140;7.076;2022-11-15T02:34:50;7.30;;;6.03;;
15112;SDS011;7657;50.140;7.076;2022-11-15T02:37:21;6.32;;;5.60;;
15112;SDS011;7657;50.140;7.076;2022-11-15T02:39:57;9.02;;;5.70;;
15112;SDS011;7657;50.140;7.076;2022-11-15T02:42:33;7.53;;;5.45;;
15112;SDS011;7657;50.140;7.076;2022-11-15T02:45:24;6.32;;;5.50;;
15112;SDS011;7657;50.140;7.076;2022-11-15T02:47:56;6.90;;;5.68;;
15112;SDS011;7657;50.140;7.076;2022-11-15T02:50:27;5.45;;;4.55;;
15112;SDS011;7657;50.140;7.076;2022-11-15T02:52:56;6.47;;;4.85;;
15112;SDS011;7657;50.140;7.076;2022-11-15T02:55:27;6.25;;;5.47;;
15112;SDS011;7657;50.140;7.076;2022-11-15T02:58:00;6.57;;;4.38;;
15112;SDS011;7657;50.140;7.076;2022-11-15T03:00:51;4.95;;;4.13;;
15112;SDS011;7657;50.140;7.076;2022-11-15T03:03:30;5.10;;;4.60;;
15112;SDS011;7657;50.140;7.076;2022-11-15T03:06:10;5.28;;;4.45;;
15112;SDS011;7657;50.140;7.076;2022-11-15T03:08:47;4.80;;;4.18;;
15112;SDS011;7657;50.140;7.076;2022-11-15T03:11:23;5.95;;;4.18;;
15112;SDS011;7657;50.140;7.076;2022-11-15T03:13:53;4.65;;;4.15;;
15112;SDS011;7657;50.140;7.076;2022-11-15T03:16:24;4.97;;;4.30;;
15112;SDS011;7657;50.140;7.076;2022-11-15T03:18:58;4.97;;;4.38;;
15112;SDS011;7657;50.140;7.076;2022-11-15T03:21:30;4.82;;;4.10;;
15112;SDS011;7657;50.140;7.076;2022-11-15T03:24:01;5.82;;;4.28;;
15112;SDS011;7657;50.140;7.076;2022-11-15T03:26:31;4.32;;;3.88;;
15112;SDS011;7657;50.140;7.076;2022-11-15T03:29:01;5.88;;;4.22;;
15112;SDS011;7657;50.140;7.076;2022-11-15T03:31:34;5.68;;;4.22;;
15112;SDS011;7657;50.140;7.076;2022-11-15T03:34:18;4.55;;;4.03;;
15112;SDS011;7657;50.140;7.076;2022-11-15T03:36:48;5.18;;;3.80;;
15112;SDS011;7657;50.140;7.076;2022-11-15T03:39:17;5.78;;;4.20;;
15112;SDS011;7657;50.140;7.076;2022-11-15T03:41:46;6.75;;;4.10;;
15112;SDS011;7657;50.140;7.076;2022-11-15T03:44:19;4.28;;;3.30;;
15112;SDS011;7657;50.140;7.076;2022-11-15T03:46:56;4.50;;;3.55;;
15112;SDS011;7657;50.140;7.076;2022-11-15T03:49:31;4.20;;;3.42;;
15112;SDS011;7657;50.140;7.076;2022-11-15T03:52:00;7.13;;;3.58;;
15112;SDS011;7657;50.140;7.076;2022-11-15T03:54:28;3.90;;;3.08;;
15112;SDS011;7657;50.140;7.076;2022-11-15T03:56:56;4.43;;;3.20;;
15112;SDS011;7657;50.140;7.076;2022-11-15T03:59:23;5.28;;;3.10;;
15112;SDS011;7657;50.140;7.076;2022-11-15T04:01:50;4.07;;;3.08;;
15112;SDS011;7657;50.140;7.076;2022-11-15T04:04:17;4.03;;;3.55;;
15112;SDS011;7657;50.140;7.076;2022-11-15T04:06:45;4.72;;;3.10;;
15112;SDS011;7657;50.140;7.076;2022-11-15T04:09:12;2.97;;;2.67;;
15112;SDS011;7657;50.140;7.076;2022-11-15T04:11:39;3.75;;;2.78;;
15112;SDS011;7657;50.140;7.076;2022-11-15T04:14:05;4.82;;;2.80;;
15112;SDS011;7657;50.140;7.076;2022-11-15T04:16:32;2.85;;;2.55;;
15112;SDS011;7657;50.140;7.076;2022-11-15T04:18:59;4.22;;;3.10;;
15112;SDS011;7657;50.140;7.076;2022-11-15T04:21:45;3.10;;;2.70;;
15112;SDS011;7657;50.140;7.076;2022-11-15T04:24:29;4.32;;;2.92;;
15112;SDS011;7657;50.140;7.076;2022-11-15T04:26:56;5.90;;;2.90;;
15112;SDS011;7657;50.140;7.076;2022-11-15T04:29:23;4.43;;;2.53;;
15112;SDS011;7657;50.140;7.076;2022-11-15T04:32:02;3.92;;;2.60;;
15112;SDS011;7657;50.140;7.076;2022-11-15T04:34:30;4.22;;;2.35;;
15112;SDS011;7657;50.140;7.076;2022-11-15T04:36:58;3.17;;;2.38;;
15112;SDS011;7657;50.140;7.076;2022-11-15T04:39:36;2.50;;;2.30;;
15112;SDS011;7657;50.140;7.076;2022-11-15T04:42:03;3.45;;;2.42;;
15112;SDS011;7657;50.140;7.076;2022-11-15T04:44:30;3.72;;;2.67;;
15112;SDS011;7657;50.140;7.076;2022-11-15T04:46:57;6.28;;;3.65;;
15112;SDS011;7657;50.140;7.076;2022-11-15T04:49:24;3.88;;;2.70;;
15112;SDS011;7657;50.140;7.076;2022-11-15T04:51:51;4.28;;;2.75;;
15112;SDS011;7657;50.140;7.076;2022-11-15T04:54:19;3.05;;;2.47;;
15112;SDS011;7657;50.140;7.076;2022-11-15T04:56:46;3.17;;;2.15;;
15112;SDS011;7657;50.140;7.076;2022-11-15T04:59:13;2.95;;;2.40;;
15112;SDS011;7657;50.140;7.076;2022-11-15T05:01:40;3.55;;;2.25;;
15112;SDS011;7657;50.140;7.076;2022-11-15T05:04:07;2.80;;;2.25;;
15112;SDS011;7657;50.140;7.076;2022-11-15T05:06:45;3.03;;;2.30;;
15112;SDS011;7657;50.140;7.076;2022-11-15T05:09:12;3.20;;;2.58;;
15112;SDS011;7657;50.140;7.076;2022-11-15T05:11:41;3.15;;;2.30;;
15112;SDS011;7657;50.140;7.076;2022-11-15T05:14:08;2.97;;;2.53;;
15112;SDS011;7657;50.140;7.076;2022-11-15T05:16:35;2.92;;;2.17;;
15112;SDS011;7657;50.140;7.076;2022-11-15T05:19:02;2.58;;;2.30;;
15112;SDS011;7657;50.140;7.076;2022-11-15T05:21:29;3.28;;;2.33;;
15112;SDS011;7657;50.140;7.076;2022-11-15T05:23:57;3.85;;;2.22;;
15112;SDS011;7657;50.140;7.076;2022-11-15T05:26:24;4.97;;;2.65;;
15112;SDS011;7657;50.140;7.076;2022-11-15T05:28:55;3.53;;;2.30;;
15112;SDS011;7657;50.140;7.076;2022-11-15T05:31:23;4.28;;;2.00;;
15112;SDS011;7657;50.140;7.076;2022-11-15T05:33:51;3.38;;;2.28;;
15112;SDS011;7657;50.140;7.076;2022-11-15T05:36:20;4.32;;;2.55;;
15112;SDS011;7657;50.140;7.076;2022-11-15T05:38:53;4.38;;;3.85;;
15112;SDS011;7657;50.140;7.076;2022-11-15T05:41:21;3.70;;;2.22;;
15112;SDS011;7657;50.140;7.076;2022-11-15T05:43:53;3.13;;;2.30;;
15112;SDS011;7657;50.140;7.076;2022-11-15T05:46:21;2.60;;;2.20;;
15112;SDS011;7657;50.140;7.076;2022-11-15T05:48:48;2.60;;;2.38;;
15112;SDS011;7657;50.140;7.076;2022-11-15T05:51:18;3.47;;;2.92;;
15112;SDS011;7657;50.140;7.076;2022-11-15T05:53:46;3.05;;;2.75;;
15112;SDS011;7657;50.140;7.076;2022-11-15T05:56:14;3.65;;;2.67;;
15112;SDS011;7657;50.140;7.076;2022-11-15T05:58:41;5.07;;;3.00;;
15112;SDS011;7657;50.140;7.076;2022-11-15T06:01:08;3.13;;;2.10;;
15112;SDS011;7657;50.140;7.076;2022-11-15T06:03:37;1.90;;;1.70;;
15112;SDS011;7657;50.140;7.076;2022-11-15T06:06:04;11.55;;;7.18;;
15112;SDS011;7657;50.140;7.076;2022-11-15T06:08:31;6.60;;;3.63;;
15112;SDS011;7657;50.140;7.076;2022-11-15T06:11:02;3.58;;;2.50;;
15112;SDS011;7657;50.140;7.076;2022-11-15T06:13:30;26.60;;;13.55;;
15112;SDS011;7657;50.140;7.076;2022-11-15T06:15:57;5.32;;;3.15;;
15112;SDS011;7657;50.140;7.076;2022-11-15T06:18:24;6.07;;;4.13;;
15112;SDS011;7657;50.140;7.076;2022-11-15T06:20:52;8.55;;;5.35;;
15112;SDS011;7657;50.140;7.076;2022-11-15T06:23:19;11.10;;;6.93;;
15112;SDS011;7657;50.140;7.076;2022-11-15T06:25:46;25.55;;;15.15;;
15112;SDS011;7657;50.140;7.076;2022-11-15T06:28:13;4.60;;;2.80;;
15112;SDS011;7657;50.140;7.076;2022-11-15T06:30:40;10.02;;;6.35;;
15112;SDS011;7657;50.140;7.076;2022-11-15T06:33:06;5.70;;;3.30;;
15112;SDS011;7657;50.140;7.076;2022-11-15T06:35:34;9.52;;;5.55;;
15112;SDS011;7657;50.140;7.076;2022-11-15T06:38:04;4.75;;;2.95;;
15112;SDS011;7657;50.140;7.076;2022-11-15T06:40:33;3.55;;;2.80;;
15112;SDS011;7657;50.140;7.076;2022-11-15T06:43:01;3.47;;;2.70;;
15112;SDS011;7657;50.140;7.076;2022-11-15T06:45:28;3.13;;;2.63;;
15112;SDS011;7657;50.140;7.076;2022-11-15T06:47:55;12.73;;;8.48;;
15112;SDS011;7657;50.140;7.076;2022-11-15T06:50:23;3.22;;;2.33;;
15112;SDS011;7657;50.140;7.076;2022-11-15T06:52:50;6.68;;;4.60;;
15112;SDS011;7657;50.140;7.076;2022-11-15T06:55:19;10.05;;;5.93;;
15112;SDS011;7657;50.140;7.076;2022-11-15T06:57:46;15.30;;;10.32;;
15112;SDS011;7657;50.140;7.076;2022-11-15T07:00:14;7.75;;;4.88;;
15112;SDS011;7657;50.140;7.076;2022-11-15T07:02:42;26.35;;;16.60;;
15112;SDS011;7657;50.140;7.076;2022-11-15T07:05:09;21.75;;;14.07;;
15112;SDS011;7657;50.140;7.076;2022-11-15T07:07:36;5.60;;;3.85;;
15112;SDS011;7657;50.140;7.076;2022-11-15T07:10:03;6.75;;;4.25;;
15112;SDS011;7657;50.140;7.076;2022-11-15T07:12:32;3.78;;;3.40;;
15112;SDS011;7657;50.140;7.076;2022-11-15T07:14:59;7.07;;;4.45;;
15112;SDS011;7657;50.140;7.076;2022-11-15T07:17:26;8.23;;;5.75;;
15112;SDS011;7657;50.140;7.076;2022-11-15T07:19:53;11.43;;;6.93;;
15112;SDS011;7657;50.140;7.076;2022-11-15T07:22:20;10.85;;;7.43;;
15112;SDS011;7657;50.140;7.076;2022-11-15T07:24:46;10.90;;;6.80;;
15112;SDS011;7657;50.140;7.076;2022-11-15T07:27:13;8.55;;;6.40;;
15112;SDS011;7657;50.140;7.076;2022-11-15T07:29:42;4.60;;;2.55;;
15112;SDS011;7657;50.140;7.076;2022-11-15T07:32:09;8.40;;;4.63;;
15112;SDS011;7657;50.140;7.076;2022-11-15T07:34:36;13.57;;;9.43;;
15112;SDS011;7657;50.140;7.076;2022-11-15T07:37:07;2.72;;;2.42;;
15112;SDS011;7657;50.140;7.076;2022-11-15T07:39:34;8.68;;;5.45;;
15112;SDS011;7657;50.140;7.076;2022-11-15T07:42:00;4.15;;;2.40;;
15112;SDS011;7657;50.140;7.076;2022-11-15T07:44:46;5.65;;;2.63;;
15112;SDS011;7657;50.140;7.076;2022-11-15T07:47:13;5.50;;;3.80;;
15112;SDS011;7657;50.140;7.076;2022-11-15T07:49:40;11.63;;;8.88;;
15112;SDS011;7657;50.140;7.076;2022-11-15T07:52:07;7.00;;;3.13;;
15112;SDS011;7657;50.140;7.076;2022-11-15T07:54:34;4.60;;;3.22;;
15112;SDS011;7657;50.140;7.076;2022-11-15T07:57:01;13.68;;;8.45;;
15112;SDS011;7657;50.140;7.076;2022-11-15T07:59:28;6.32;;;4.20;;
15112;SDS011;7657;50.140;7.076;2022-11-15T08:01:56;7.30;;;3.75;;
15112;SDS011;7657;50.140;7.076;2022-11-15T08:04:23;9.15;;;5.90;;
15112;SDS011;7657;50.140;7.076;2022-11-15T08:06:50;6.15;;;3.88;;
15112;SDS011;7657;50.140;7.076;2022-11-15T08:09:17;3.50;;;2.20;;
15112;SDS011;7657;50.140;7.076;2022-11-15T08:11:44;4.60;;;3.63;;
15112;SDS011;7657;50.140;7.076;2022-11-15T08:14:11;14.07;;;12.18;;
15112;SDS011;7657;50.140;7.076;2022-11-15T08:16:38;4.05;;;2.38;;
15112;SDS011;7657;50.140;7.076;2022-11-15T08:19:06;4.30;;;2.63;;
15112;SDS011;7657;50.140;7.076;2022-11-15T08:21:33;3.70;;;3.08;;
15112;SDS011;7657;50.140;7.076;2022-11-15T08:24:00;5.90;;;4.93;;
15112;SDS011;7657;50.140;7.076;2022-11-15T08:26:27;6.93;;;5.60;;
15112;SDS011;7657;50.140;7.076;2022-11-15T08:28:55;1.67;;;1.58;;
15112;SDS011;7657;50.140;7.076;2022-11-15T08:31:22;2.22;;;1.27;;
15112;SDS011;7657;50.140;7.076;2022-11-15T08:33:48;1.85;;;1.75;;
15112;SDS011;7657;50.140;7.076;2022-11-15T08:36:17;2.10;;;1.40;;
15112;SDS011;7657;50.140;7.076;2022-11-15T08:38:44;2.92;;;1.77;;
15112;SDS011;7657;50.140;7.076;2022-11-15T08:43:54;2.17;;;1.95;;
15112;SDS011;7657;50.140;7.076;2022-11-15T08:46:21;1.65;;;1.20;;
15112;SDS011;7657;50.140;7.076;2022-11-15T08:48:48;2.60;;;1.40;;
15112;SDS011;7657;50.140;7.076;2022-11-15T08:51:16;2.65;;;1.70;;
15112;SDS011;7657;50.140;7.076;2022-11-15T08:53:43;2.38;;;1.20;;
15112;SDS011;7657;50.140;7.076;2022-11-15T08:56:11;3.45;;;2.40;;
15112;SDS011;7657;50.140;7.076;2022-11-15T08:58:38;2.50;;;1.10;;
15112;SDS011;7657;50.140;7.076;2022-11-15T09:01:13;6.05;;;3.60;;
15112;SDS011;7657;50.140;7.076;2022-11-15T09:03:41;4.80;;;3.60;;
15112;SDS011;7657;50.140;7.076;2022-11-15T09:06:08;11.95;;;6.43;;
15112;SDS011;7657;50.140;7.076;2022-11-15T09:08:37;8.25;;;4.97;;
15112;SDS011;7657;50.140;7.076;2022-11-15T09:11:04;8.02;;;5.55;;
15112;SDS011;7657;50.140;7.076;2022-11-15T09:13:32;2.63;;;1.35;;
15112;SDS011;7657;50.140;7.076;2022-11-15T09:15:59;17.95;;;14.93;;
15112;SDS011;7657;50.140;7.076;2022-11-15T09:18:26;2.45;;;1.00;;
15112;SDS011;7657;50.140;7.076;2022-11-15T09:20:55;1.98;;;1.10;;
15112;SDS011;7657;50.140;7.076;2022-11-15T09:23:23;6.82;;;5.60;;
15112;SDS011;7657;50.140;7.076;2022-11-15T09:25:52;5.40;;;3.90;;
15112;SDS011;7657;50.140;7.076;2022-11-15T09:28:19;11.25;;;7.03;;
15112;SDS011;7657;50.140;7.076;2022-11-15T09:30:45;2.17;;;2.08;;
15112;SDS011;7657;50.140;7.076;2022-11-15T09:33:12;6.38;;;3.78;;
15112;SDS011;7657;50.140;7.076;2022-11-15T09:35:39;3.10;;;1.88;;
15112;SDS011;7657;50.140;7.076;2022-11-15T09:38:07;2.55;;;1.50;;
15112;SDS011;7657;50.140;7.076;2022-11-15T09:40:35;2.85;;;1.65;;
15112;SDS011;7657;50.140;7.076;2022-11-15T09:43:07;3.75;;;3.10;;
15112;SDS011;7657;50.140;7.076;2022-11-15T09:45:52;7.53;;;6.57;;
15112;SDS011;7657;50.140;7.076;2022-11-15T09:48:33;2.22;;;1.73;;
15112;SDS011;7657;50.140;7.076;2022-11-15T09:51:13;2.85;;;2.10;;
15112;SDS011;7657;50.140;7.076;2022-11-15T09:53:48;4.95;;;2.22;;
15112;SDS011;7657;50.140;7.076;2022-11-15T09:56:22;2.33;;;1.77;;
15112;SDS011;7657;50.140;7.076;2022-11-15T09:58:56;4.30;;;1.17;;
15112;SDS011;7657;50.140;7.076;2022-11-15T10:01:36;2.00;;;0.95;;
15112;SDS011;7657;50.140;7.076;2022-11-15T10:04:10;2.08;;;1.17;;
15112;SDS011;7657;50.140;7.076;2022-11-15T10:06:38;3.38;;;1.30;;
15112;SDS011;7657;50.140;7.076;2022-11-15T10:09:12;1.98;;;1.17;;
15112;SDS011;7657;50.140;7.076;2022-11-15T10:11:41;2.50;;;1.50;;
15112;SDS011;7657;50.140;7.076;2022-11-15T10:14:11;1.65;;;1.30;;
15112;SDS011;7657;50.140;7.076;2022-11-15T10:16:49;2.13;;;1.20;;
15112;SDS011;7657;50.140;7.076;2022-11-15T10:19:26;2.85;;;1.30;;
15112;SDS011;7657;50.140;7.076;2022-11-15T10:22:00;2.75;;;1.38;;
15112;SDS011;7657;50.140;7.076;2022-11-15T10:24:40;2.15;;;1.42;;
15112;SDS011;7657;50.140;7.076;2022-11-15T10:27:09;4.47;;;2.53;;
15112;SDS011;7657;50.140;7.076;2022-11-15T10:29:43;2.50;;;2.30;;
15112;SDS011;7657;50.140;7.076;2022-11-15T10:32:12;3.85;;;2.53;;
15112;SDS011;7657;50.140;7.076;2022-11-15T10:34:44;4.93;;;2.65;;
15112;SDS011;7657;50.140;7.076;2022-11-15T10:37:11;2.67;;;2.47;;
15112;SDS011;7657;50.140;7.076;2022-11-15T10:39:38;3.55;;;3.05;;
15112;SDS011;7657;50.140;7.076;2022-11-15T10:42:15;5.15;;;4.43;;
15112;SDS011;7657;50.140;7.076;2022-11-15T10:44:45;3.22;;;2.70;;
15112;SDS011;7657;50.140;7.076;2022-11-15T10:47:22;3.38;;;3.08;;
15112;SDS011;7657;50.140;7.076;2022-11-15T10:49:57;3.40;;;2.70;;
15112;SDS011;7657;50.140;7.076;2022-11-15T10:52:26;3.88;;;3.08;;
15112;SDS011;7657;50.140;7.076;2022-11-15T10:54:55;3.55;;;2.40;;
15112;SDS011;7657;50.140;7.076;2022-11-15T10:57:26;3.42;;;2.50;;
15112;SDS011;7657;50.140;7.076;2022-11-15T10:59:57;3.35;;;2.65;;
15112;SDS011;7657;50.140;7.076;2022-11-15T11:02:28;3.30;;;2.50;;
15112;SDS011;7657;50.140;7.076;2022-11-15T11:05:01;3.60;;;2.75;;
15112;SDS011;7657;50.140;7.076;2022-11-15T11:07:30;3.65;;;2.83;;
15112;SDS011;7657;50.140;7.076;2022-11-15T11:09:59;4.55;;;2.50;;
15112;SDS011;7657;50.140;7.076;2022-11-15T11:12:28;2.47;;;2.17;;
15112;SDS011;7657;50.140;7.076;2022-11-15T11:14:58;4.82;;;2.60;;
15112;SDS011;7657;50.140;7.076;2022-11-15T11:17:32;3.55;;;2.67;;
15112;SDS011;7657;50.140;7.076;2022-11-15T11:20:10;3.25;;;2.53;;
15112;SDS011;7657;50.140;7.076;2022-11-15T11:22:53;2.47;;;2.28;;
15112;SDS011;7657;50.140;7.076;2022-11-15T11:25:30;4.03;;;2.90;;
15112;SDS011;7657;50.140;7.076;2022-11-15T11:28:14;2.30;;;2.10;;
15112;SDS011;7657;50.140;7.076;2022-11-15T11:30:57;4.05;;;2.50;;
15112;SDS011;7657;50.140;7.076;2022-11-15T11:33:31;4.43;;;2.50;;
15112;SDS011;7657;50.140;7.076;2022-11-15T11:36:05;3.13;;;2.75;;
15112;SDS011;7657;50.140;7.076;2022-11-15T11:38:55;3.38;;;2.40;;
15112;SDS011;7657;50.140;7.076;2022-11-15T11:44:25;3.28;;;2.60;;
15112;SDS011;7657;50.140;7.076;2022-11-15T11:47:00;2.28;;;2.08;;
15112;SDS011;7657;50.140;7.076;2022-11-15T11:49:31;2.22;;;1.90;;
15112;SDS011;7657;50.140;7.076;2022-11-15T11:52:06;4.00;;;2.30;;
15112;SDS011;7657;50.140;7.076;2022-11-15T11:54:50;4.03;;;1.95;;
15112;SDS011;7657;50.140;7.076;2022-11-15T11:57:29;3.88;;;2.58;;
15112;SDS011;7657;50.140;7.076;2022-11-15T12:00:02;9.70;;;4.43;;
15112;SDS011;7657;50.140;7.076;2022-11-15T12:02:35;3.80;;;2.80;;
15112;SDS011;7657;50.140;7.076;2022-11-15T12:05:09;6.03;;;4.00;;
15112;SDS011;7657;50.140;7.076;2022-11-15T12:07:42;8.07;;;4.93;;
15112;SDS011;7657;50.140;7.076;2022-11-15T12:10:20;3.90;;;2.97;;
15112;SDS011;7657;50.140;7.076;2022-11-15T12:12:52;5.50;;;3.97;;
15112;SDS011;7657;50.140;7.076;2022-11-15T12:15:26;2.88;;;2.40;;
15112;SDS011;7657;50.140;7.076;2022-11-15T12:17:57;5.13;;;3.40;;
15112;SDS011;7657;50.140;7.076;2022-11-15T12:20:27;4.03;;;2.60;;
15112;SDS011;7657;50.140;7.076;2022-11-15T12:22:58;7.88;;;5.60;;
15112;SDS011;7657;50.140;7.076;2022-11-15T12:25:31;5.25;;;2.97;;
15112;SDS011;7657;50.140;7.076;2022-11-15T12:28:03;4.88;;;3.60;;
15112;SDS011;7657;50.140;7.076;2022-11-15T12:30:42;4.65;;;3.30;;
15112;SDS011;7657;50.140;7.076;2022-11-15T12:33:30;3.30;;;2.60;;
15112;SDS011;7657;50.140;7.076;2022-11-15T12:36:02;3.13;;;2.08;;
15112;SDS011;7657;50.140;7.076;2022-11-15T12:38:53;2.42;;;1.80;;
15112;SDS011;7657;50.140;7.076;2022-11-15T12:41:22;4.10;;;2.70;;
15112;SDS011;7657;50.140;7.076;2022-11-15T12:43:50;2.83;;;1.90;;
15112;SDS011;7657;50.140;7.076;2022-11-15T12:46:21;2.33;;;2.13;;
15112;SDS011;7657;50.140;7.076;2022-11-15T12:49:11;2.03;;;1.90;;
15112;SDS011;7657;50.140;7.076;2022-11-15T12:52:06;2.22;;;1.52;;
15112;SDS011;7657;50.140;7.076;2022-11-15T12:54:51;2.55;;;1.50;;
15112;SDS011;7657;50.140;7.076;2022-11-15T12:57:35;2.40;;;2.20;;
15112;SDS011;7657;50.140;7.076;2022-11-15T13:03:21;2.75;;;1.40;;
15112;SDS011;7657;50.140;7.076;2022-11-15T13:06:01;2.22;;;1.40;;
15112;SDS011;7657;50.140;7.076;2022-11-15T13:08:40;2.38;;;1.23;;
15112;SDS011;7657;50.140;7.076;2022-11-15T13:17:17;1.52;;;1.23;;
15112;SDS011;7657;50.140;7.076;2022-11-15T13:19:53;1.80;;;1.58;;
15112;SDS011;7657;50.140;7.076;2022-11-15T13:22:26;2.58;;;1.30;;
15112;SDS011;7657;50.140;7.076;2022-11-15T13:25:15;1.75;;;1.50;;
15112;SDS011;7657;50.140;7.076;2022-11-15T13:27:45;1.67;;;1.58;;
15112;SDS011;7657;50.140;7.076;2022-11-15T13:30:13;2.28;;;1.33;;
15112;SDS011;7657;50.140;7.076;2022-11-15T13:32:52;1.77;;;1.08;;
15112;SDS011;7657;50.140;7.076;2022-11-15T13:35:20;2.75;;;1.58;;
15112;SDS011;7657;50.140;7.076;2022-11-15T13:37:50;3.97;;;1.60;;
15112;SDS011;7657;50.140;7.076;2022-11-15T13:40:21;2.35;;;1.40;;
15112;SDS011;7657;50.140;7.076;2022-11-15T13:42:52;1.38;;;0.93;;
15112;SDS011;7657;50.140;7.076;2022-11-15T13:45:19;1.25;;;0.85;;
15112;SDS011;7657;50.140;7.076;2022-11-15T13:47:51;4.43;;;0.90;;
15112;SDS011;7657;50.140;7.076;2022-11-15T13:50:20;1.33;;;0.77;;
15112;SDS011;7657;50.140;7.076;2022-11-15T13:52:52;1.63;;;1.08;;
15112;SDS011;7657;50.140;7.076;2022-11-15T13:55:22;1.25;;;0.80;;
15112;SDS011;7657;50.140;7.076;2022-11-15T13:57:51;1.38;;;0.90;;
15112;SDS011;7657;50.140;7.076;2022-11-15T14:00:27;2.75;;;1.02;;
15112;SDS011;7657;50.140;7.076;2022-11-15T14:03:06;1.90;;;1.30;;
15112;SDS011;7657;50.140;7.076;2022-11-15T14:05:40;2.05;;;0.75;;
15112;SDS011;7657;50.140;7.076;2022-11-15T14:08:20;0.85;;;0.82;;
15112;SDS011;7657;50.140;7.076;2022-11-15T14:10:48;1.25;;;0.90;;
15112;SDS011;7657;50.140;7.076;2022-11-15T14:13:32;1.48;;;0.75;;
15112;SDS011;7657;50.140;7.076;2022-11-15T14:16:12;0.77;;;0.77;;
15112;SDS011;7657;50.140;7.076;2022-11-15T14:18:42;0.85;;;0.85;;
15112;SDS011;7657;50.140;7.076;2022-11-15T14:21:11;1.52;;;0.88;;
15112;SDS011;7657;50.140;7.076;2022-11-15T14:23:39;0.82;;;0.75;;
15112;SDS011;7657;50.140;7.076;2022-11-15T14:26:10;1.27;;;0.70;;
15112;SDS011;7657;50.140;7.076;2022-11-15T14:28:52;3.67;;;1.45;;
15112;SDS011;7657;50.140;7.076;2022-11-15T14:31:19;1.40;;;1.30;;
15112;SDS011;7657;50.140;7.076;2022-11-15T14:33:46;1.77;;;1.40;;
15112;SDS011;7657;50.140;7.076;2022-11-15T14:36:15;5.85;;;1.30;;
15112;SDS011;7657;50.140;7.076;2022-11-15T14:38:44;1.05;;;0.95;;
15112;SDS011;7657;50.140;7.076;2022-11-15T14:41:17;0.80;;;0.80;;
15112;SDS011;7657;50.140;7.076;2022-11-15T14:43:46;0.82;;;0.63;;
15112;SDS011;7657;50.140;7.076;2022-11-15T14:46:13;2.88;;;0.90;;
15112;SDS011;7657;50.140;7.076;2022-11-15T14:48:39;0.85;;;0.73;;
15112;SDS011;7657;50.140;7.076;2022-11-15T14:51:09;3.42;;;1.23;;
15112;SDS011;7657;50.140;7.076;2022-11-15T14:53:38;3.00;;;1.00;;
15112;SDS011;7657;50.140;7.076;2022-11-15T14:56:07;0.95;;;0.70;;
15112;SDS011;7657;50.140;7.076;2022-11-15T14:58:34;1.50;;;0.90;;
15112;SDS011;7657;50.140;7.076;2022-11-15T15:01:02;4.40;;;1.05;;
15112;SDS011;7657;50.140;7.076;2022-11-15T15:03:29;2.42;;;0.63;;
15112;SDS011;7657;50.140;7.076;2022-11-15T15:05:56;0.88;;;0.85;;
15112;SDS011;7657;50.140;7.076;2022-11-15T15:08:23;1.52;;;0.65;;
15112;SDS011;7657;50.140;7.076;2022-11-15T15:10:50;1.00;;;0.60;;
15112;SDS011;7657;50.140;7.076;2022-11-15T15:13:19;1.10;;;1.00;;
15112;SDS011;7657;50.140;7.076;2022-11-15T15:15:47;0.98;;;0.80;;
15112;SDS011;7657;50.140;7.076;2022-11-15T15:18:15;0.77;;;0.70;;
15112;SDS011;7657;50.140;7.076;2022-11-15T15:20:43;1.88;;;0.60;;
15112;SDS011;7657;50.140;7.076;2022-11-15T15:23:14;1.83;;;0.90;;
15112;SDS011;7657;50.140;7.076;2022-11-15T15:25:43;0.95;;;0.80;;
15112;SDS011;7657;50.140;7.076;2022-11-15T15:28:10;1.92;;;0.82;;
15112;SDS011;7657;50.140;7.076;2022-11-15T15:30:38;1.52;;;0.63;;
15112;SDS011;7657;50.140;7.076;2022-11-15T15:33:05;0.75;;;0.75;;
15112;SDS011;7657;50.140;7.076;2022-11-15T15:35:33;1.52;;;0.90;;
15112;SDS011;7657;50.140;7.076;2022-11-15T15:38:00;1.10;;;0.93;;
15112;SDS011;7657;50.140;7.076;2022-11-15T15:40:28;1.30;;;0.60;;